sensor_id;sensor_type;location;lat;lon;timestamp;pressure;altitude;pressure_sealevel;temperature;humidity
68107;BME280;54892;47.488;19.026;2023-11-19T00:02:17;100567.34;;;3.23;76.33
68107;BME280;54892;47.488;19.026;2023-11-19T00:05:40;100556.44;;;3.12;76.70
68107;BME280;54892;47.488;19.026;2023-11-19T00:09:03;100560.44;;;3.08;76.90
68107;BME280;54892;47.488;19.026;2023-11-19T00:12:26;100551.28;;;3.19;76.65
68107;BME280;54892;47.488;19.026;2023-11-19T00:15:49;100547.09;;;3.25;76.26
68107;BME280;54892;47.488;19.026;2023-11-19T00:19:14;100540.03;;;3.18;76.40
68107;BME280;54892;47.488;19.026;2023-11-19T00:22:38;100548.91;;;3.24;76.45
68107;BME280;54892;47.488;19.026;2023-11-19T00:26:09;100551.38;;;3.32;76.17
68107;BME280;54892;47.488;19.026;2023-11-19T00:29:32;100556.13;;;3.29;76.34
68107;BME280;54892;47.488;19.026;2023-11-19T00:32:55;100556.75;;;3.31;76.28
68107;BME280;54892;47.488;19.026;2023-11-19T00:36:20;100566.81;;;3.34;76.17
68107;BME280;54892;47.488;19.026;2023-11-19T00:39:45;100582.66;;;3.32;76.38
68107;BME280;54892;47.488;19.026;2023-11-19T00:43:08;100564.75;;;3.23;76.40
68107;BME280;54892;47.488;19.026;2023-11-19T00:46:31;100567.28;;;3.09;76.94
68107;BME280;54892;47.488;19.026;2023-11-19T00:49:55;100560.97;;;2.97;77.85
68107;BME280;54892;47.488;19.026;2023-11-19T00:53:19;100559.37;;;2.96;78.31
68107;BME280;54892;47.488;19.026;2023-11-19T00:56:42;100550.03;;;2.80;78.85
68107;BME280;54892;47.488;19.026;2023-11-19T01:00:07;100548.47;;;2.85;78.99
68107;BME280;54892;47.488;19.026;2023-11-19T01:03:40;100543.25;;;2.85;79.32
68107;BME280;54892;47.488;19.026;2023-11-19T01:07:03;100541.50;;;2.93;79.36
68107;BME280;54892;47.488;19.026;2023-11-19T01:10:28;100540.88;;;2.91;79.76
68107;BME280;54892;47.488;19.026;2023-11-19T01:13:51;100552.91;;;2.92;79.86
68107;BME280;54892;47.488;19.026;2023-11-19T01:17:14;100555.16;;;2.95;79.91
68107;BME280;54892;47.488;19.026;2023-11-19T01:20:38;100554.16;;;2.96;79.60
68107;BME280;54892;47.488;19.026;2023-11-19T01:24:01;100547.62;;;2.78;79.70
68107;BME280;54892;47.488;19.026;2023-11-19T01:27:27;100546.38;;;2.74;79.99
68107;BME280;54892;47.488;19.026;2023-11-19T01:30:50;100538.31;;;2.69;79.90
68107;BME280;54892;47.488;19.026;2023-11-19T01:34:13;100547.53;;;2.65;80.47
68107;BME280;54892;47.488;19.026;2023-11-19T01:37:36;100543.31;;;2.64;80.49
68107;BME280;54892;47.488;19.026;2023-11-19T01:41:00;100544.38;;;2.76;80.31
68107;BME280;54892;47.488;19.026;2023-11-19T01:44:26;100538.34;;;2.76;80.61
68107;BME280;54892;47.488;19.026;2023-11-19T01:47:50;100539.41;;;2.81;80.63
68107;BME280;54892;47.488;19.026;2023-11-19T01:51:13;100536.31;;;2.71;80.96
68107;BME280;54892;47.488;19.026;2023-11-19T01:54:38;100526.53;;;2.73;80.86
68107;BME280;54892;47.488;19.026;2023-11-19T01:58:01;100508.97;;;2.60;81.05
68107;BME280;54892;47.488;19.026;2023-11-19T02:01:27;100507.19;;;2.61;81.36
68107;BME280;54892;47.488;19.026;2023-11-19T02:04:52;100504.53;;;2.54;81.75
68107;BME280;54892;47.488;19.026;2023-11-19T02:08:15;100496.47;;;2.49;82.06
68107;BME280;54892;47.488;19.026;2023-11-19T02:11:39;100496.16;;;2.58;82.40
68107;BME280;54892;47.488;19.026;2023-11-19T02:15:03;100488.31;;;2.58;82.33
68107;BME280;54892;47.488;19.026;2023-11-19T02:18:28;100498.13;;;2.56;81.79
68107;BME280;54892;47.488;19.026;2023-11-19T02:21:51;100498.16;;;2.35;82.48
68107;BME280;54892;47.488;19.026;2023-11-19T02:25:19;100507.16;;;2.32;83.01
68107;BME280;54892;47.488;19.026;2023-11-19T02:28:44;100481.53;;;2.36;82.87
68107;BME280;54892;47.488;19.026;2023-11-19T02:32:08;100482.06;;;2.24;83.08
68107;BME280;54892;47.488;19.026;2023-11-19T02:35:32;100485.16;;;2.13;83.73
68107;BME280;54892;47.488;19.026;2023-11-19T02:38:55;100493.19;;;2.18;84.10
68107;BME280;54892;47.488;19.026;2023-11-19T02:42:18;100493.28;;;2.25;83.81
68107;BME280;54892;47.488;19.026;2023-11-19T02:45:43;100482.72;;;2.33;84.02
68107;BME280;54892;47.488;19.026;2023-11-19T02:49:07;100474.03;;;2.26;83.83
68107;BME280;54892;47.488;19.026;2023-11-19T02:52:31;100475.38;;;2.15;84.27
68107;BME280;54892;47.488;19.026;2023-11-19T02:55:59;100466.88;;;2.06;84.63
68107;BME280;54892;47.488;19.026;2023-11-19T02:59:27;100461.91;;;2.11;84.72
68107;BME280;54892;47.488;19.026;2023-11-19T03:03:02;100459.75;;;2.15;85.11
68107;BME280;54892;47.488;19.026;2023-11-19T03:06:39;100456.94;;;2.17;85.04
68107;BME280;54892;47.488;19.026;2023-11-19T03:10:03;100441.28;;;2.10;84.98
68107;BME280;54892;47.488;19.026;2023-11-19T03:13:27;100447.59;;;2.01;85.46
68107;BME280;54892;47.488;19.026;2023-11-19T03:16:50;100454.53;;;2.15;85.30
68107;BME280;54892;47.488;19.026;2023-11-19T03:20:15;100439.53;;;2.17;85.08
68107;BME280;54892;47.488;19.026;2023-11-19T03:23:38;100436.94;;;2.17;85.07
68107;BME280;54892;47.488;19.026;2023-11-19T03:27:02;100433.50;;;2.17;85.40
68107;BME280;54892;47.488;19.026;2023-11-19T03:30:26;100435.31;;;2.16;85.28
68107;BME280;54892;47.488;19.026;2023-11-19T03:33:53;100429.34;;;2.22;85.19
68107;BME280;54892;47.488;19.026;2023-11-19T03:37:18;100427.63;;;2.08;85.46
68107;BME280;54892;47.488;19.026;2023-11-19T03:40:41;100440.53;;;2.16;85.38
68107;BME280;54892;47.488;19.026;2023-11-19T03:44:05;100412.88;;;2.15;85.28
68107;BME280;54892;47.488;19.026;2023-11-19T03:47:28;100410.03;;;2.10;85.33
68107;BME280;54892;47.488;19.026;2023-11-19T03:50:51;100396.00;;;2.11;85.51
68107;BME280;54892;47.488;19.026;2023-11-19T03:54:16;100399.97;;;2.07;85.43
68107;BME280;54892;47.488;19.026;2023-11-19T03:57:39;100380.34;;;2.04;85.67
68107;BME280;54892;47.488;19.026;2023-11-19T04:01:02;100384.72;;;2.04;85.75
68107;BME280;54892;47.488;19.026;2023-11-19T04:04:26;100377.44;;;1.92;86.33
68107;BME280;54892;47.488;19.026;2023-11-19T04:07:49;100379.47;;;1.97;86.43
68107;BME280;54892;47.488;19.026;2023-11-19T04:11:13;100374.78;;;1.86;86.43
68107;BME280;54892;47.488;19.026;2023-11-19T04:14:36;100362.06;;;1.97;86.12
68107;BME280;54892;47.488;19.026;2023-11-19T04:17:59;100362.81;;;1.91;86.22
68107;BME280;54892;47.488;19.026;2023-11-19T04:21:22;100369.37;;;1.87;86.63
68107;BME280;54892;47.488;19.026;2023-11-19T04:24:45;100373.84;;;1.93;86.35
68107;BME280;54892;47.488;19.026;2023-11-19T04:28:10;100364.66;;;1.97;85.66
68107;BME280;54892;47.488;19.026;2023-11-19T04:31:33;100352.41;;;1.91;85.33
68107;BME280;54892;47.488;19.026;2023-11-19T04:34:56;100353.66;;;1.74;86.19
68107;BME280;54892;47.488;19.026;2023-11-19T04:38:19;100347.25;;;1.70;86.70
68107;BME280;54892;47.488;19.026;2023-11-19T04:41:46;100339.28;;;1.56;87.38
68107;BME280;54892;47.488;19.026;2023-11-19T04:45:12;100351.09;;;1.52;87.50
68107;BME280;54892;47.488;19.026;2023-11-19T04:48:35;100375.59;;;1.43;88.15
68107;BME280;54892;47.488;19.026;2023-11-19T04:52:01;100370.81;;;1.25;89.09
68107;BME280;54892;47.488;19.026;2023-11-19T04:55:24;100374.75;;;1.20;89.18
68107;BME280;54892;47.488;19.026;2023-11-19T04:58:47;100389.59;;;1.42;89.31
68107;BME280;54892;47.488;19.026;2023-11-19T05:02:12;100393.19;;;1.62;88.43
68107;BME280;54892;47.488;19.026;2023-11-19T05:05:35;100376.28;;;1.51;88.28
68107;BME280;54892;47.488;19.026;2023-11-19T05:08:59;100363.09;;;1.53;88.26
68107;BME280;54892;47.488;19.026;2023-11-19T05:12:26;100367.91;;;1.56;87.86
68107;BME280;54892;47.488;19.026;2023-11-19T05:15:49;100379.00;;;1.43;88.63
68107;BME280;54892;47.488;19.026;2023-11-19T05:19:14;100388.91;;;1.55;89.08
68107;BME280;54892;47.488;19.026;2023-11-19T05:22:37;100383.28;;;1.73;88.83
68107;BME280;54892;47.488;19.026;2023-11-19T05:26:00;100380.94;;;1.78;88.03
68107;BME280;54892;47.488;19.026;2023-11-19T05:29:24;100367.66;;;1.73;87.37
68107;BME280;54892;47.488;19.026;2023-11-19T05:32:47;100373.47;;;1.75;87.56
68107;BME280;54892;47.488;19.026;2023-11-19T05:36:12;100375.13;;;1.54;88.47
68107;BME280;54892;47.488;19.026;2023-11-19T05:39:35;100357.97;;;1.60;88.33
68107;BME280;54892;47.488;19.026;2023-11-19T05:42:59;100367.19;;;1.62;88.19
68107;BME280;54892;47.488;19.026;2023-11-19T05:46:22;100362.06;;;1.47;88.62
68107;BME280;54892;47.488;19.026;2023-11-19T05:49:47;100367.41;;;1.46;89.04
68107;BME280;54892;47.488;19.026;2023-11-19T05:53:12;100362.78;;;1.41;89.31
68107;BME280;54892;47.488;19.026;2023-11-19T05:56:36;100371.34;;;1.57;89.10
68107;BME280;54892;47.488;19.026;2023-11-19T05:59:59;100372.19;;;1.64;88.27
68107;BME280;54892;47.488;19.026;2023-11-19T06:03:23;100370.16;;;1.59;88.51
68107;BME280;54892;47.488;19.026;2023-11-19T06:06:46;100368.66;;;1.50;89.12
68107;BME280;54892;47.488;19.026;2023-11-19T06:10:10;100373.63;;;1.66;88.90
68107;BME280;54892;47.488;19.026;2023-11-19T06:13:35;100360.09;;;1.78;88.68
68107;BME280;54892;47.488;19.026;2023-11-19T06:16:59;100356.50;;;1.79;87.78
68107;BME280;54892;47.488;19.026;2023-11-19T06:20:22;100361.28;;;1.75;87.91
68107;BME280;54892;47.488;19.026;2023-11-19T06:23:45;100352.44;;;1.70;88.23
68107;BME280;54892;47.488;19.026;2023-11-19T06:27:10;100347.34;;;1.61;88.69
68107;BME280;54892;47.488;19.026;2023-11-19T06:30:33;100339.47;;;1.76;88.34
68107;BME280;54892;47.488;19.026;2023-11-19T06:33:57;100339.91;;;1.80;88.24
68107;BME280;54892;47.488;19.026;2023-11-19T06:37:21;100331.28;;;1.79;88.49
68107;BME280;54892;47.488;19.026;2023-11-19T06:40:44;100337.78;;;1.90;88.31
68107;BME280;54892;47.488;19.026;2023-11-19T06:44:08;100331.81;;;1.96;87.49
68107;BME280;54892;47.488;19.026;2023-11-19T06:47:31;100331.50;;;2.06;87.18
68107;BME280;54892;47.488;19.026;2023-11-19T06:50:55;100334.34;;;2.18;86.61
68107;BME280;54892;47.488;19.026;2023-11-19T06:54:18;100331.97;;;2.23;86.54
68107;BME280;54892;47.488;19.026;2023-11-19T06:57:41;100332.50;;;2.40;86.02
68107;BME280;54892;47.488;19.026;2023-11-19T07:01:08;100323.28;;;2.44;84.70
68107;BME280;54892;47.488;19.026;2023-11-19T07:04:31;100321.31;;;2.53;84.88
68107;BME280;54892;47.488;19.026;2023-11-19T07:07:55;100319.13;;;2.57;84.65
68107;BME280;54892;47.488;19.026;2023-11-19T07:11:18;100322.22;;;2.74;84.73
68107;BME280;54892;47.488;19.026;2023-11-19T07:14:41;100314.63;;;2.79;84.35
68107;BME280;54892;47.488;19.026;2023-11-19T07:18:06;100322.25;;;2.87;84.35
68107;BME280;54892;47.488;19.026;2023-11-19T07:21:29;100326.25;;;2.90;84.42
68107;BME280;54892;47.488;19.026;2023-11-19T07:24:52;100314.03;;;2.84;83.78
68107;BME280;54892;47.488;19.026;2023-11-19T07:28:16;100325.44;;;2.83;83.82
68107;BME280;54892;47.488;19.026;2023-11-19T07:31:39;100334.06;;;2.83;83.59
68107;BME280;54892;47.488;19.026;2023-11-19T07:35:04;100333.62;;;2.73;84.62
68107;BME280;54892;47.488;19.026;2023-11-19T07:38:27;100327.22;;;2.76;84.48
68107;BME280;54892;47.488;19.026;2023-11-19T07:41:50;100331.47;;;2.90;84.41
68107;BME280;54892;47.488;19.026;2023-11-19T07:45:14;100326.47;;;2.88;83.63
68107;BME280;54892;47.488;19.026;2023-11-19T07:48:37;100335.06;;;2.82;83.43
68107;BME280;54892;47.488;19.026;2023-11-19T07:52:02;100338.72;;;2.88;82.92
68107;BME280;54892;47.488;19.026;2023-11-19T07:55:25;100327.84;;;2.78;83.90
68107;BME280;54892;47.488;19.026;2023-11-19T07:58:49;100332.22;;;2.64;84.23
68107;BME280;54892;47.488;19.026;2023-11-19T08:02:12;100326.81;;;2.72;84.66
68107;BME280;54892;47.488;19.026;2023-11-19T08:05:36;100315.44;;;2.86;84.63
68107;BME280;54892;47.488;19.026;2023-11-19T08:09:01;100315.44;;;2.93;84.76
68107;BME280;54892;47.488;19.026;2023-11-19T08:12:24;100302.66;;;3.05;84.59
68107;BME280;54892;47.488;19.026;2023-11-19T08:15:47;100292.22;;;3.12;84.41
68107;BME280;54892;47.488;19.026;2023-11-19T08:19:10;100276.19;;;3.22;84.32
68107;BME280;54892;47.488;19.026;2023-11-19T08:22:33;100271.97;;;3.27;84.26
68107;BME280;54892;47.488;19.026;2023-11-19T08:25:57;100264.37;;;3.32;84.35
68107;BME280;54892;47.488;19.026;2023-11-19T08:29:20;100232.47;;;3.30;84.35
68107;BME280;54892;47.488;19.026;2023-11-19T08:32:44;100222.63;;;3.39;84.21
68107;BME280;54892;47.488;19.026;2023-11-19T08:36:08;100259.34;;;3.38;84.66
68107;BME280;54892;47.488;19.026;2023-11-19T08:39:31;100278.03;;;3.48;84.75
68107;BME280;54892;47.488;19.026;2023-11-19T08:42:58;100265.59;;;3.50;84.85
68107;BME280;54892;47.488;19.026;2023-11-19T08:46:21;100253.09;;;3.52;84.07
68107;BME280;54892;47.488;19.026;2023-11-19T08:49:44;100258.16;;;3.54;84.52
68107;BME280;54892;47.488;19.026;2023-11-19T08:53:08;100235.25;;;3.62;84.16
68107;BME280;54892;47.488;19.026;2023-11-19T08:56:31;100242.06;;;3.70;84.15
68107;BME280;54892;47.488;19.026;2023-11-19T08:59:57;100253.69;;;3.88;83.81
68107;BME280;54892;47.488;19.026;2023-11-19T09:03:20;100229.16;;;3.82;83.01
68107;BME280;54892;47.488;19.026;2023-11-19T09:06:44;100257.31;;;3.73;83.74
68107;BME280;54892;47.488;19.026;2023-11-19T09:10:07;100262.53;;;3.87;82.91
68107;BME280;54892;47.488;19.026;2023-11-19T09:13:33;100254.72;;;3.73;82.98
68107;BME280;54892;47.488;19.026;2023-11-19T09:16:57;100248.91;;;3.71;82.99
68107;BME280;54892;47.488;19.026;2023-11-19T09:20:21;100274.78;;;3.73;83.36
68107;BME280;54892;47.488;19.026;2023-11-19T09:23:44;100262.12;;;3.76;82.79
68107;BME280;54892;47.488;19.026;2023-11-19T09:27:09;100264.94;;;3.75;82.21
68107;BME280;54892;47.488;19.026;2023-11-19T09:30:32;100254.50;;;3.68;82.75
68107;BME280;54892;47.488;19.026;2023-11-19T09:33:57;100267.56;;;3.75;83.06
68107;BME280;54892;47.488;19.026;2023-11-19T09:37:20;100277.00;;;3.69;82.38
68107;BME280;54892;47.488;19.026;2023-11-19T09:40:43;100253.13;;;3.72;82.70
68107;BME280;54892;47.488;19.026;2023-11-19T09:44:06;100249.47;;;3.87;81.76
68107;BME280;54892;47.488;19.026;2023-11-19T09:47:30;100231.62;;;3.77;81.99
68107;BME280;54892;47.488;19.026;2023-11-19T09:50:55;100233.22;;;3.78;81.81
68107;BME280;54892;47.488;19.026;2023-11-19T09:54:18;100218.53;;;3.84;81.29
68107;BME280;54892;47.488;19.026;2023-11-19T09:57:41;100227.97;;;3.85;81.34
68107;BME280;54892;47.488;19.026;2023-11-19T10:01:05;100217.53;;;3.85;81.08
68107;BME280;54892;47.488;19.026;2023-11-19T10:04:35;100216.31;;;3.87;80.86
68107;BME280;54892;47.488;19.026;2023-11-19T10:08:01;100206.28;;;3.84;81.03
68107;BME280;54892;47.488;19.026;2023-11-19T10:11:24;100208.47;;;3.94;81.36
68107;BME280;54892;47.488;19.026;2023-11-19T10:14:48;100192.13;;;4.05;81.48
68107;BME280;54892;47.488;19.026;2023-11-19T10:18:14;100186.47;;;4.15;80.97
68107;BME280;54892;47.488;19.026;2023-11-19T10:21:37;100182.06;;;4.16;80.22
68107;BME280;54892;47.488;19.026;2023-11-19T10:25:01;100178.44;;;4.17;80.59
68107;BME280;54892;47.488;19.026;2023-11-19T10:28:25;100167.97;;;4.23;80.65
68107;BME280;54892;47.488;19.026;2023-11-19T10:31:55;100181.19;;;4.35;80.57
68107;BME280;54892;47.488;19.026;2023-11-19T10:35:19;100175.09;;;4.41;80.22
68107;BME280;54892;47.488;19.026;2023-11-19T10:38:52;100175.38;;;4.33;80.17
68107;BME280;54892;47.488;19.026;2023-11-19T10:42:16;100175.56;;;4.32;80.17
68107;BME280;54892;47.488;19.026;2023-11-19T10:45:40;100178.31;;;4.44;79.56
68107;BME280;54892;47.488;19.026;2023-11-19T10:49:03;100171.38;;;4.24;79.93
68107;BME280;54892;47.488;19.026;2023-11-19T10:52:27;100172.19;;;4.24;80.33
68107;BME280;54892;47.488;19.026;2023-11-19T10:55:50;100173.16;;;4.30;80.46
68107;BME280;54892;47.488;19.026;2023-11-19T10:59:16;100164.16;;;4.19;81.83
68107;BME280;54892;47.488;19.026;2023-11-19T11:02:45;100155.69;;;4.24;81.37
68107;BME280;54892;47.488;19.026;2023-11-19T11:06:13;100142.28;;;4.14;81.70
68107;BME280;54892;47.488;19.026;2023-11-19T11:09:36;100135.84;;;4.16;82.42
68107;BME280;54892;47.488;19.026;2023-11-19T11:13:02;100115.72;;;4.23;82.74
68107;BME280;54892;47.488;19.026;2023-11-19T11:16:28;100117.59;;;4.41;81.32
68107;BME280;54892;47.488;19.026;2023-11-19T11:19:53;100106.41;;;4.34;81.45
68107;BME280;54892;47.488;19.026;2023-11-19T11:23:35;100099.00;;;4.31;81.98
68107;BME280;54892;47.488;19.026;2023-11-19T11:27:16;100102.34;;;4.38;82.11
68107;BME280;54892;47.488;19.026;2023-11-19T11:30:59;100105.56;;;4.40;83.02
68107;BME280;54892;47.488;19.026;2023-11-19T11:34:41;100106.97;;;4.43;83.63
68107;BME280;54892;47.488;19.026;2023-11-19T11:38:08;100106.16;;;4.42;83.25
68107;BME280;54892;47.488;19.026;2023-11-19T11:41:31;100107.38;;;4.40;83.89
68107;BME280;54892;47.488;19.026;2023-11-19T11:44:58;100108.13;;;4.47;83.99
68107;BME280;54892;47.488;19.026;2023-11-19T11:48:24;100098.31;;;4.42;84.44
68107;BME280;54892;47.488;19.026;2023-11-19T11:52:00;100086.31;;;4.60;84.09
68107;BME280;54892;47.488;19.026;2023-11-19T11:55:25;100076.31;;;4.25;85.96
68107;BME280;54892;47.488;19.026;2023-11-19T11:58:48;100074.87;;;4.29;85.73
68107;BME280;54892;47.488;19.026;2023-11-19T12:02:13;100074.28;;;4.27;86.43
68107;BME280;54892;47.488;19.026;2023-11-19T12:05:38;100076.22;;;4.38;86.34
68107;BME280;54892;47.488;19.026;2023-11-19T12:09:05;100060.53;;;4.38;86.82
68107;BME280;54892;47.488;19.026;2023-11-19T12:12:29;100056.75;;;4.34;87.20
68107;BME280;54892;47.488;19.026;2023-11-19T12:16:07;100032.28;;;4.54;86.86
68107;BME280;54892;47.488;19.026;2023-11-19T12:19:31;100031.59;;;4.65;86.90
68107;BME280;54892;47.488;19.026;2023-11-19T12:22:54;100035.69;;;4.80;86.68
68107;BME280;54892;47.488;19.026;2023-11-19T12:26:38;100029.16;;;4.89;86.36
68107;BME280;54892;47.488;19.026;2023-11-19T12:30:03;100012.66;;;4.88;85.60
68107;BME280;54892;47.488;19.026;2023-11-19T12:33:26;100008.66;;;4.86;85.66
68107;BME280;54892;47.488;19.026;2023-11-19T12:36:49;99999.66;;;4.82;85.67
68107;BME280;54892;47.488;19.026;2023-11-19T12:40:17;99996.28;;;4.75;86.04
68107;BME280;54892;47.488;19.026;2023-11-19T12:43:42;99990.19;;;4.62;86.32
68107;BME280;54892;47.488;19.026;2023-11-19T12:47:08;99995.63;;;4.61;87.11
68107;BME280;54892;47.488;19.026;2023-11-19T12:50:51;99991.31;;;4.73;86.28
68107;BME280;54892;47.488;19.026;2023-11-19T12:54:14;99980.28;;;4.46;87.59
68107;BME280;54892;47.488;19.026;2023-11-19T12:57:39;99969.66;;;4.40;88.18
68107;BME280;54892;47.488;19.026;2023-11-19T13:01:05;99954.72;;;4.48;88.58
68107;BME280;54892;47.488;19.026;2023-11-19T13:04:29;99949.38;;;4.61;87.93
68107;BME280;54892;47.488;19.026;2023-11-19T13:07:58;99961.84;;;4.59;88.56
68107;BME280;54892;47.488;19.026;2023-11-19T13:11:30;99965.22;;;4.66;88.66
68107;BME280;54892;47.488;19.026;2023-11-19T13:14:54;99967.84;;;4.66;88.65
68107;BME280;54892;47.488;19.026;2023-11-19T13:18:18;99971.75;;;4.76;88.68
68107;BME280;54892;47.488;19.026;2023-11-19T13:21:42;99957.59;;;4.83;88.62
68107;BME280;54892;47.488;19.026;2023-11-19T13:25:09;99953.06;;;4.91;88.45
68107;BME280;54892;47.488;19.026;2023-11-19T13:28:32;99945.97;;;4.98;86.56
68107;BME280;54892;47.488;19.026;2023-11-19T13:31:55;99936.09;;;5.00;86.55
68107;BME280;54892;47.488;19.026;2023-11-19T13:35:20;99940.41;;;5.06;86.28
68107;BME280;54892;47.488;19.026;2023-11-19T13:38:44;99950.84;;;5.13;85.75
68107;BME280;54892;47.488;19.026;2023-11-19T13:42:09;99939.56;;;5.12;85.12
68107;BME280;54892;47.488;19.026;2023-11-19T13:45:34;99944.12;;;5.17;84.75
68107;BME280;54892;47.488;19.026;2023-11-19T13:48:58;99941.94;;;5.14;84.61
68107;BME280;54892;47.488;19.026;2023-11-19T13:52:22;99946.97;;;5.15;84.18
68107;BME280;54892;47.488;19.026;2023-11-19T13:55:46;99940.94;;;5.15;83.65
68107;BME280;54892;47.488;19.026;2023-11-19T13:59:09;99926.63;;;5.17;82.58
68107;BME280;54892;47.488;19.026;2023-11-19T14:02:33;99932.28;;;5.14;82.58
68107;BME280;54892;47.488;19.026;2023-11-19T14:05:57;99922.59;;;5.15;82.59
68107;BME280;54892;47.488;19.026;2023-11-19T14:09:22;99915.34;;;5.17;82.95
68107;BME280;54892;47.488;19.026;2023-11-19T14:12:45;99923.78;;;5.19;83.48
68107;BME280;54892;47.488;19.026;2023-11-19T14:16:08;99926.97;;;5.21;84.64
68107;BME280;54892;47.488;19.026;2023-11-19T14:19:33;99939.47;;;5.19;84.92
68107;BME280;54892;47.488;19.026;2023-11-19T14:22:56;99933.06;;;5.15;84.41
68107;BME280;54892;47.488;19.026;2023-11-19T14:26:20;99928.84;;;5.14;85.32
68107;BME280;54892;47.488;19.026;2023-11-19T14:29:44;99925.47;;;5.13;86.86
68107;BME280;54892;47.488;19.026;2023-11-19T14:33:07;99929.75;;;5.08;88.27
68107;BME280;54892;47.488;19.026;2023-11-19T14:36:30;99935.00;;;5.08;88.82
68107;BME280;54892;47.488;19.026;2023-11-19T14:39:54;99929.59;;;5.02;89.62
68107;BME280;54892;47.488;19.026;2023-11-19T14:43:18;99932.03;;;5.04;90.00
68107;BME280;54892;47.488;19.026;2023-11-19T14:46:42;99926.22;;;5.02;90.43
68107;BME280;54892;47.488;19.026;2023-11-19T14:50:07;99927.56;;;5.05;91.40
68107;BME280;54892;47.488;19.026;2023-11-19T14:53:31;99924.37;;;5.02;92.24
68107;BME280;54892;47.488;19.026;2023-11-19T14:56:55;99925.03;;;4.98;92.86
68107;BME280;54892;47.488;19.026;2023-11-19T15:00:20;99940.97;;;4.96;93.30
68107;BME280;54892;47.488;19.026;2023-11-19T15:03:44;99938.91;;;4.98;93.84
68107;BME280;54892;47.488;19.026;2023-11-19T15:07:10;99944.72;;;5.00;94.12
68107;BME280;54892;47.488;19.026;2023-11-19T15:10:34;99936.53;;;4.97;94.33
68107;BME280;54892;47.488;19.026;2023-11-19T15:13:57;99939.28;;;5.02;94.19
68107;BME280;54892;47.488;19.026;2023-11-19T15:17:22;99937.75;;;4.94;94.34
68107;BME280;54892;47.488;19.026;2023-11-19T15:20:46;99933.13;;;4.96;94.55
68107;BME280;54892;47.488;19.026;2023-11-19T15:24:10;99928.53;;;4.92;94.78
68107;BME280;54892;47.488;19.026;2023-11-19T15:27:33;99941.25;;;4.88;95.33
68107;BME280;54892;47.488;19.026;2023-11-19T15:30:56;99947.28;;;4.88;95.86
68107;BME280;54892;47.488;19.026;2023-11-19T15:34:21;99951.94;;;4.86;96.09
68107;BME280;54892;47.488;19.026;2023-11-19T15:37:45;99946.91;;;4.85;96.43
68107;BME280;54892;47.488;19.026;2023-11-19T15:41:09;99925.41;;;4.83;97.04
68107;BME280;54892;47.488;19.026;2023-11-19T15:44:33;99927.00;;;4.84;96.55
68107;BME280;54892;47.488;19.026;2023-11-19T15:47:56;99926.28;;;4.77;96.48
68107;BME280;54892;47.488;19.026;2023-11-19T15:51:22;99932.87;;;4.79;96.66
68107;BME280;54892;47.488;19.026;2023-11-19T15:54:45;99911.63;;;4.76;96.99
68107;BME280;54892;47.488;19.026;2023-11-19T15:58:09;99901.75;;;4.78;97.06
68107;BME280;54892;47.488;19.026;2023-11-19T16:01:32;99900.72;;;4.79;97.40
68107;BME280;54892;47.488;19.026;2023-11-19T16:04:56;99899.12;;;4.78;98.02
68107;BME280;54892;47.488;19.026;2023-11-19T16:08:20;99897.72;;;4.75;98.40
68107;BME280;54892;47.488;19.026;2023-11-19T16:11:44;99905.97;;;4.79;98.67
68107;BME280;54892;47.488;19.026;2023-11-19T16:15:12;99907.25;;;4.88;97.86
68107;BME280;54892;47.488;19.026;2023-11-19T16:18:36;99903.91;;;4.81;97.74
68107;BME280;54892;47.488;19.026;2023-11-19T16:22:00;99906.16;;;4.77;97.12
68107;BME280;54892;47.488;19.026;2023-11-19T16:25:32;99898.53;;;4.76;97.05
68107;BME280;54892;47.488;19.026;2023-11-19T16:28:57;99893.91;;;4.78;96.66
68107;BME280;54892;47.488;19.026;2023-11-19T16:32:20;99896.34;;;4.72;96.81
68107;BME280;54892;47.488;19.026;2023-11-19T16:35:43;99886.56;;;4.68;97.72
68107;BME280;54892;47.488;19.026;2023-11-19T16:39:07;99876.88;;;4.68;97.68
68107;BME280;54892;47.488;19.026;2023-11-19T16:42:37;99891.56;;;4.69;96.98
68107;BME280;54892;47.488;19.026;2023-11-19T16:46:00;99884.03;;;4.61;97.32
68107;BME280;54892;47.488;19.026;2023-11-19T16:49:23;99885.47;;;4.57;98.07
68107;BME280;54892;47.488;19.026;2023-11-19T16:52:47;99874.94;;;4.64;97.97
68107;BME280;54892;47.488;19.026;2023-11-19T16:56:11;99867.44;;;4.67;98.17
68107;BME280;54892;47.488;19.026;2023-11-19T16:59:38;99888.00;;;4.64;98.41
68107;BME280;54892;47.488;19.026;2023-11-19T17:03:02;99881.41;;;4.61;98.38
68107;BME280;54892;47.488;19.026;2023-11-19T17:06:27;99892.03;;;4.66;98.47
68107;BME280;54892;47.488;19.026;2023-11-19T17:09:51;99896.59;;;4.71;98.29
68107;BME280;54892;47.488;19.026;2023-11-19T17:13:14;99906.03;;;4.72;97.87
68107;BME280;54892;47.488;19.026;2023-11-19T17:16:39;99889.38;;;4.85;97.17
68107;BME280;54892;47.488;19.026;2023-11-19T17:20:04;99888.16;;;4.87;94.93
68107;BME280;54892;47.488;19.026;2023-11-19T17:23:28;99870.63;;;4.88;95.81
68107;BME280;54892;47.488;19.026;2023-11-19T17:26:51;99890.69;;;4.76;97.37
68107;BME280;54892;47.488;19.026;2023-11-19T17:30:15;99889.44;;;4.78;98.49
68107;BME280;54892;47.488;19.026;2023-11-19T17:33:40;99881.25;;;4.75;99.40
68107;BME280;54892;47.488;19.026;2023-11-19T17:37:04;99874.06;;;4.70;100.00
68107;BME280;54892;47.488;19.026;2023-11-19T17:40:28;99881.41;;;4.61;100.00
68107;BME280;54892;47.488;19.026;2023-11-19T17:43:51;99868.19;;;4.75;100.00
68107;BME280;54892;47.488;19.026;2023-11-19T17:47:15;99864.28;;;4.65;100.00
68107;BME280;54892;47.488;19.026;2023-11-19T17:50:39;99881.41;;;4.61;100.00
68107;BME280;54892;47.488;19.026;2023-11-19T17:54:03;99857.88;;;4.80;100.00